Terminal Aerodrome Forecast
Issued by NWS Louisville, KY

Home | Current Version | Previous Version | Text Only | Print | Product List | Glossary On
Versions: 1 2 3 4 5 6 7 8 9 10 11 12 13 14 15 16 17
000
FTUS43 KLMK 021722
TAFLEX
TAF
KLEX 021722Z 0218/0318 28005KT P6SM SCT050
     FM030900 VRB03KT 5SM BR SCT250
     FM031400 35005KT P6SM SCT250=

USA.gov is the U.S. government's official web portal to all federal, state and local government web resources and services.